Terminal Aerodrome Forecast
Issued by NWS Wakefield, VA

Home | Current Version | Previous Version | Text Only | Print | Product List | Glossary On
Versions: 1 2 3 4 5 6 7 8 9 10 11 12 13 14 15 16 17 18 19 20 21
019
FTUS41 KAKQ 071740
TAFRIC
TAF
KRIC 071740Z 0718/0818 02008KT P6SM SCT120 OVC200
     FM080300 36006KT P6SM SCT250
     FM081200 33004KT P6SM SKC
     FM081700 12004KT P6SM BKN120=

USA.gov is the U.S. government's official web portal to all federal, state and local government web resources and services.